createdAt,value
2019-05-29T00:00:19.632Z,7.50
2019-05-29T00:05:22.113Z,7.03
2019-05-29T00:10:24.520Z,6.67
2019-05-29T00:15:26.944Z,8.33
2019-05-29T00:20:29.470Z,7.53
2019-05-29T00:25:31.863Z,7.17
2019-05-29T00:30:34.331Z,7.50
2019-05-29T00:35:36.632Z,7.23
2019-05-29T00:40:39.135Z,6.70
2019-05-29T00:45:41.535Z,6.87
2019-05-29T00:50:44.016Z,6.20
2019-05-29T00:55:46.412Z,6.43
2019-05-29T01:00:48.863Z,5.70
2019-05-29T01:05:52.084Z,5.73
2019-05-29T01:10:54.551Z,6.17
2019-05-29T01:15:56.875Z,5.57
2019-05-29T01:20:59.323Z,6.07
2019-05-29T01:26:01.851Z,6.40
2019-05-29T01:31:04.329Z,6.47
2019-05-29T01:36:07.000Z,6.23
2019-05-29T01:41:09.334Z,5.97
2019-05-29T01:46:11.775Z,5.80
2019-05-29T01:51:15.418Z,5.43
2019-05-29T01:56:19.784Z,6.33
2019-05-29T02:01:23.928Z,5.80
2019-05-29T02:06:26.541Z,6.53
2019-05-29T02:11:32.122Z,6.17
2019-05-29T02:16:33.346Z,5.23
2019-05-29T02:21:35.816Z,6.63
2019-05-29T02:26:38.700Z,6.60
2019-05-29T02:31:41.224Z,6.27
2019-05-29T02:36:43.610Z,6.80
2019-05-29T02:41:46.029Z,6.70
2019-05-29T02:46:48.426Z,6.30
2019-05-29T02:51:50.979Z,7.20
2019-05-29T02:56:53.403Z,7.10
2019-05-29T03:01:55.888Z,6.50
2019-05-29T03:06:59.237Z,6.57
2019-05-29T03:12:02.113Z,7.47
2019-05-29T03:17:04.519Z,6.77
2019-05-29T03:22:07.287Z,6.93
2019-05-29T03:27:09.710Z,6.60
2019-05-29T03:32:14.468Z,6.77
2019-05-29T03:37:16.590Z,6.93
2019-05-29T03:42:18.996Z,6.93
2019-05-29T03:47:21.380Z,6.70
2019-05-29T03:52:26.347Z,6.77
2019-05-29T03:57:29.801Z,6.57
2019-05-29T04:02:35.558Z,6.50
2019-05-29T04:07:39.011Z,6.37
2019-05-29T04:12:41.445Z,6.67
2019-05-29T04:17:44.736Z,6.70
2019-05-29T04:22:50.368Z,6.47
2019-05-29T04:27:55.859Z,6.87
2019-05-29T04:32:58.302Z,6.80
2019-05-29T04:38:00.925Z,7.33
2019-05-29T04:43:03.397Z,7.07
2019-05-29T04:48:05.876Z,7.70
2019-05-29T04:53:08.434Z,8.57
2019-05-29T04:58:10.977Z,8.50
2019-05-29T05:03:13.374Z,8.67
2019-05-29T05:08:15.902Z,8.60
2019-05-29T05:13:19.369Z,8.33
2019-05-29T05:18:22.138Z,9.63
2019-05-29T05:23:24.650Z,8.63
2019-05-29T05:28:27.299Z,8.87
2019-05-29T05:33:32.461Z,8.90
2019-05-29T05:38:36.702Z,8.13
2019-05-29T05:43:39.457Z,8.23
2019-05-29T05:48:42.021Z,8.30
2019-05-29T05:53:44.467Z,8.23
2019-05-29T05:58:46.896Z,8.40
2019-05-29T06:03:49.335Z,8.27
2019-05-29T06:08:51.680Z,8.13
2019-05-29T06:13:54.076Z,7.97
2019-05-29T06:18:56.698Z,7.50
2019-05-29T06:23:59.074Z,7.00
2019-05-29T06:29:02.233Z,7.67
2019-05-29T06:34:04.635Z,5.67
2019-05-29T06:39:07.415Z,5.30
2019-05-29T06:44:09.821Z,5.40
2019-05-29T06:49:12.226Z,5.10
2019-05-29T06:54:14.907Z,5.13
2019-05-29T06:59:17.394Z,5.00
2019-05-29T07:04:19.982Z,3.83
2019-05-29T07:09:22.399Z,3.30
2019-05-29T07:14:25.247Z,4.47
2019-05-29T07:19:47.032Z,4.70
2019-05-29T07:24:33.499Z,4.50
2019-05-29T07:29:37.007Z,4.00
2019-05-29T07:34:51.313Z,4.60
2019-05-29T07:39:43.626Z,4.57
2019-05-29T07:44:46.298Z,4.93
2019-05-29T07:49:50.337Z,5.20
2019-05-29T07:54:53.521Z,5.57
2019-05-29T07:59:56.315Z,5.20
2019-05-29T08:04:58.859Z,2.10
2019-05-29T08:10:01.442Z,4.80
2019-05-29T08:15:05.018Z,2.07
2019-05-29T08:20:09.687Z,3.30
2019-05-29T08:25:13.796Z,3.10
2019-05-29T08:30:17.516Z,2.40
2019-05-29T08:35:20.055Z,2.60
2019-05-29T08:40:22.496Z,2.30
2019-05-29T08:45:24.886Z,1.80
2019-05-29T08:50:27.485Z,2.30
2019-05-29T08:55:29.912Z,2.00
2019-05-29T09:00:32.291Z,1.67
2019-05-29T09:05:34.731Z,1.70
2019-05-29T09:10:37.181Z,1.70
2019-05-29T09:15:39.713Z,1.00
2019-05-29T09:21:01.020Z,1.67
2019-05-29T09:25:46.639Z,1.20
2019-05-29T09:30:56.596Z,1.80
2019-05-29T09:35:59.144Z,1.43
2019-05-29T09:41:01.580Z,1.77
2019-05-29T09:46:04.129Z,1.40
2019-05-29T09:51:20.542Z,1.70
2019-05-29T09:56:10.947Z,1.80
2019-05-29T10:01:23.067Z,1.90
2019-05-29T10:06:17.925Z,2.00
2019-05-29T10:11:22.437Z,2.40
2019-05-29T10:16:25.671Z,2.20
2019-05-29T10:21:39.267Z,2.33
2019-05-29T10:26:32.900Z,1.70
2019-05-29T10:31:38.430Z,2.87
2019-05-29T10:36:42.250Z,1.37
2019-05-29T10:41:45.131Z,1.87
2019-05-29T10:46:49.900Z,1.40
2019-05-29T10:52:07.661Z,2.20
2019-05-29T10:56:56.587Z,2.13
2019-05-29T11:01:59.279Z,2.60
2019-05-29T11:07:01.713Z,2.00
2019-05-29T11:12:06.610Z,2.77
2019-05-29T11:17:11.822Z,1.97
2019-05-29T11:22:25.639Z,1.47
2019-05-29T11:27:19.598Z,2.20
2019-05-29T11:32:22.020Z,2.30
2019-05-29T11:37:24.510Z,2.30
2019-05-29T11:42:28.357Z,2.00
2019-05-29T11:47:30.989Z,2.27
2019-05-29T11:52:42.264Z,2.77
2019-05-29T11:57:39.667Z,1.23
2019-05-29T12:02:42.055Z,2.40
2019-05-29T12:07:46.730Z,1.97
2019-05-29T12:13:17.899Z,1.90
2019-05-29T12:18:27.285Z,2.37
2019-05-29T12:23:29.854Z,1.80
2019-05-29T12:28:32.452Z,2.00
2019-05-29T12:33:35.313Z,1.80
2019-05-29T12:38:37.820Z,1.20
2019-05-29T12:43:40.443Z,1.57
2019-05-29T12:48:42.900Z,1.60
2019-05-29T12:53:45.412Z,1.90
2019-05-29T12:58:47.869Z,1.53
2019-05-29T13:03:50.399Z,1.77
2019-05-29T13:08:54.413Z,1.70
2019-05-29T13:13:58.341Z,1.27
2019-05-29T13:19:03.265Z,1.60
2019-05-29T13:24:10.880Z,1.53
2019-05-29T13:29:10.979Z,1.70
2019-05-29T13:34:16.814Z,2.73
2019-05-29T13:39:22.413Z,2.37
2019-05-29T13:44:25.818Z,4.03
2019-05-29T13:49:28.852Z,2.97
2019-05-29T13:54:31.385Z,2.97
2019-05-29T13:59:35.050Z,2.97
2019-05-29T14:04:39.645Z,1.80
2019-05-29T14:09:42.069Z,1.50
2019-05-29T14:14:44.554Z,1.03
2019-05-29T14:19:48.347Z,2.00
2019-05-29T14:24:51.909Z,2.20
2019-05-29T14:29:54.348Z,1.70
2019-05-29T14:35:24.571Z,2.00
2019-05-29T14:40:27.281Z,2.13
2019-05-29T14:45:31.132Z,1.70
2019-05-29T14:50:33.770Z,2.00
2019-05-29T14:55:43.512Z,1.70
2019-05-29T15:01:05.511Z,1.83
2019-05-29T15:06:08.064Z,1.90
2019-05-29T15:11:12.048Z,1.87
2019-05-29T15:16:15.014Z,2.10
2019-05-29T15:21:23.061Z,2.30
2019-05-29T15:32:19.651Z,2.47
2019-05-29T15:37:35.136Z,2.60
2019-05-29T15:42:51.215Z,2.70
2019-05-29T15:47:54.201Z,2.20
2019-05-29T15:52:59.764Z,1.87
2019-05-29T15:58:07.082Z,2.50
2019-05-29T16:03:11.570Z,2.03
2019-05-29T16:08:18.371Z,2.93
2019-05-29T16:13:21.368Z,2.60
2019-05-29T16:18:29.023Z,2.83
2019-05-29T16:23:35.648Z,3.63
2019-05-29T16:28:33.653Z,3.50
2019-05-29T16:33:36.297Z,3.40
2019-05-29T16:38:38.959Z,4.03
2019-05-29T16:43:41.538Z,3.50
2019-05-29T16:49:01.595Z,3.90
2019-05-29T16:54:04.467Z,4.10
2019-05-29T16:59:06.978Z,4.23
2019-05-29T17:04:09.749Z,4.37
2019-05-29T17:09:18.413Z,4.20
2019-05-29T17:14:31.638Z,4.03
2019-05-29T17:19:40.708Z,3.93
2019-05-29T17:24:44.427Z,4.10
2019-05-29T17:35:51.976Z,3.80
2019-05-29T17:40:56.932Z,4.20
2019-05-29T17:46:04.911Z,3.80
2019-05-29T17:51:07.571Z,4.13
2019-05-29T17:56:25.227Z,3.83
2019-05-29T18:01:16.168Z,4.30
2019-05-29T18:06:20.595Z,3.70
2019-05-29T18:11:29.893Z,3.67
2019-05-29T18:16:37.317Z,3.77
2019-05-29T18:21:53.777Z,4.10
2019-05-29T18:27:05.220Z,4.47
2019-05-29T18:32:12.995Z,4.40
2019-05-29T18:42:44.570Z,3.93
2019-05-29T18:47:47.386Z,3.90
2019-05-29T18:52:50.244Z,3.07
2019-05-29T18:57:53.750Z,3.33
2019-05-29T19:03:06.652Z,3.07
2019-05-29T19:08:10.183Z,4.03
2019-05-29T19:13:14.300Z,3.83
2019-05-29T19:18:17.414Z,3.73
2019-05-29T19:29:31.185Z,3.17
2019-05-29T19:39:51.614Z,3.20
2019-05-29T19:45:12.953Z,3.63
2019-05-29T19:50:33.188Z,3.13
2019-05-29T19:55:38.224Z,5.17
2019-05-29T20:00:43.586Z,3.43
2019-05-29T20:05:46.293Z,3.90
2019-05-29T20:10:49.210Z,3.47
2019-05-29T20:15:54.060Z,3.10
2019-05-29T20:21:01.165Z,3.30
2019-05-29T20:31:36.723Z,3.03
2019-05-29T20:36:40.050Z,3.30
2019-05-29T20:41:44.497Z,3.30
2019-05-29T20:46:50.689Z,3.77
2019-05-29T20:51:54.108Z,3.73
2019-05-29T20:57:22.519Z,4.10
2019-05-29T21:02:25.212Z,3.73
2019-05-29T21:07:28.048Z,4.07
2019-05-29T21:12:30.648Z,3.30
2019-05-29T21:17:33.736Z,3.87
2019-05-29T21:34:11.188Z,3.90
2019-05-29T21:39:17.663Z,3.70
2019-05-29T21:44:20.278Z,3.97
2019-05-29T21:49:22.781Z,4.37
2019-05-29T21:54:25.710Z,4.17
2019-05-29T21:59:28.259Z,4.20
2019-05-29T22:04:32.180Z,3.77
2019-05-29T22:09:34.961Z,3.90
2019-05-29T22:14:37.501Z,3.87
2019-05-29T22:19:40.240Z,3.43
2019-05-29T22:24:42.719Z,3.60
2019-05-29T22:29:45.350Z,6.87
2019-05-29T22:34:47.809Z,4.03
2019-05-29T22:39:51.479Z,6.10
2019-05-29T22:44:54.058Z,4.00
2019-05-29T22:49:57.833Z,3.93
2019-05-29T22:55:02.221Z,4.50
2019-05-29T23:00:07.941Z,4.20
2019-05-29T23:05:10.706Z,3.93
2019-05-29T23:10:14.640Z,4.57
2019-05-29T23:15:17.119Z,4.07
2019-05-29T23:20:19.910Z,4.27
2019-05-29T23:25:22.478Z,4.03
2019-05-29T23:30:24.942Z,3.80
2019-05-29T23:35:27.610Z,4.53
2019-05-29T23:40:30.142Z,4.50
2019-05-29T23:45:32.612Z,4.70
2019-05-29T23:50:35.040Z,4.70
2019-05-29T23:55:37.460Z,5.33
